Time;durP1;ratioP1;P1;durP2;ratioP2;P2;SDS_P1;SDS_P2;PMS_P1;PMS_P2;Temp;Humidity;BMP_temperature;BMP_pressure;BME280_temperature;BME280_humidity;BME280_pressure;Samples;Min_cycle;Max_cycle;Signal;HPM_P1;HPM_P2
2022/04/21 00:02:04;;;;;;;9.80;8.90;;;12.70;76.20;;;;;;5014082;28;20190;-69
2022/04/21 00:04:31;;;;;;;9.53;8.83;;;12.60;76.40;;;;;;5014124;28;20191;-69
2022/04/21 00:06:56;;;;;;;9.53;8.83;;;12.60;76.60;;;;;;5010890;28;20437;-69
2022/04/21 00:09:22;;;;;;;10.50;9.80;;;12.60;76.90;;;;;;5012002;28;20975;-70
2022/04/21 00:11:48;;;;;;;9.53;8.70;;;12.70;78.00;;;;;;5012723;28;20531;-69
2022/04/21 00:14:13;;;;;;;9.33;8.43;;;12.80;79.20;;;;;;5012574;28;20190;-71
2022/04/21 00:16:39;;;;;;;9.00;8.30;;;12.70;77.80;;;;;;5012767;28;20187;-69
2022/04/21 00:19:06;;;;;;;10.47;9.60;;;12.70;78.30;;;;;;4995513;28;20271;-69
2022/04/21 00:23:26;;;;;;;10.33;9.53;;;12.70;79.10;;;;;;5013549;28;20187;-69
2022/04/21 00:24:18;;;;;;;11.47;10.63;;;12.70;79.50;;;;;;5012825;28;20934;-69
2022/04/21 00:26:43;;;;;;;11.00;10.10;;;12.70;78.90;;;;;;5011522;28;20427;-69
2022/04/21 00:29:09;;;;;;;12.60;11.60;;;12.60;79.70;;;;;;5013086;28;20218;-69
2022/04/21 00:31:36;;;;;;;10.50;9.70;;;12.60;80.00;;;;;;5013471;28;20182;-76
2022/04/21 00:34:01;;;;;;;12.20;10.90;;;12.50;79.70;;;;;;5013412;28;20498;-69
2022/04/21 00:36:27;;;;;;;11.77;10.77;;;12.50;79.70;;;;;;5011307;28;20528;-69
2022/04/21 00:38:53;;;;;;;13.20;12.10;;;12.50;79.60;;;;;;5012635;28;20175;-69
2022/04/21 00:41:19;;;;;;;12.20;11.10;;;12.50;79.70;;;;;;5010666;28;20628;-69
2022/04/21 00:43:44;;;;;;;11.97;11.03;;;12.50;79.60;;;;;;5007217;28;20556;-69
2022/04/21 00:46:21;;;;;;;11.70;10.67;;;12.50;79.80;;;;;;5013326;28;20424;-69
2022/04/21 00:48:49;;;;;;;11.40;10.50;;;12.50;79.60;;;;;;5007557;28;20237;-69
2022/04/21 00:51:15;;;;;;;12.60;11.40;;;12.50;80.00;;;;;;5013126;28;20445;-69
2022/04/21 00:53:42;;;;;;;12.27;11.07;;;12.50;80.20;;;;;;5011453;28;20414;-69
2022/04/21 00:56:09;;;;;;;13.37;12.40;;;12.50;80.40;;;;;;5011553;28;20415;-69
2022/04/21 00:58:37;;;;;;;11.30;10.50;;;12.50;80.50;;;;;;5009574;28;20471;-69
2022/04/21 01:01:03;;;;;;;11.10;10.03;;;12.50;80.10;;;;;;5010738;28;20422;-69
2022/04/21 01:03:30;;;;;;;12.40;11.40;;;12.50;80.20;;;;;;5012903;28;20413;-69
2022/04/21 01:05:55;;;;;;;11.70;10.80;;;12.40;80.20;;;;;;4993991;28;20464;-69
2022/04/21 01:08:21;;;;;;;11.93;11.00;;;12.40;80.60;;;;;;5012605;28;20841;-69
2022/04/21 01:10:49;;;;;;;11.70;10.60;;;12.30;81.50;;;;;;5011457;28;20190;-69
2022/04/21 01:13:16;;;;;;;12.60;11.47;;;12.30;81.70;;;;;;5013109;28;20533;-69
2022/04/21 01:15:41;;;;;;;11.83;10.83;;;12.20;81.90;;;;;;5010086;28;20469;-70
2022/04/21 01:18:08;;;;;;;11.80;10.80;;;12.20;82.10;;;;;;5012888;28;20428;-69
2022/04/21 01:20:35;;;;;;;12.47;11.37;;;12.10;82.80;;;;;;5012203;28;20669;-69
2022/04/21 01:23:01;;;;;;;11.30;10.40;;;12.10;83.40;;;;;;5011622;28;20426;-69
2022/04/21 01:25:26;;;;;;;13.30;12.20;;;12.10;84.30;;;;;;5012386;28;20451;-69
2022/04/21 01:27:57;;;;;;;12.80;11.60;;;12.00;84.70;;;;;;5010405;28;20490;-69
2022/04/21 01:30:22;;;;;;;13.10;11.93;;;12.00;84.30;;;;;;5012236;28;20172;-69
2022/04/21 01:32:49;;;;;;;13.40;12.23;;;12.00;84.90;;;;;;5010401;28;20433;-69
2022/04/21 01:35:15;;;;;;;12.93;11.83;;;11.90;84.90;;;;;;5012574;28;20184;-69
2022/04/21 01:43:10;;;;;;;13.07;11.90;;;11.80;85.30;;;;;;5012477;28;20416;-69
2022/04/21 01:45:37;;;;;;;13.87;12.50;;;11.70;85.70;;;;;;5010941;28;20421;-69
2022/04/21 01:48:03;;;;;;;13.10;12.00;;;11.60;86.30;;;;;;5009950;28;20979;-69
2022/04/21 01:50:29;;;;;;;13.13;11.97;;;11.20;87.80;;;;;;5010828;28;20450;-70
2022/04/21 01:52:57;;;;;;;14.50;13.03;;;11.20;89.00;;;;;;5010908;28;20509;-69
2022/04/21 01:55:25;;;;;;;12.37;11.27;;;11.10;89.00;;;;;;5009507;28;20444;-69
2022/04/21 01:57:50;;;;;;;13.50;12.30;;;10.90;90.20;;;;;;5010064;28;20430;-69
2022/04/21 02:00:16;;;;;;;12.97;11.77;;;10.90;90.80;;;;;;5010622;28;20937;-69
2022/04/21 02:02:45;;;;;;;13.93;12.63;;;11.00;90.60;;;;;;5011328;28;20179;-75
2022/04/21 02:05:11;;;;;;;13.70;12.50;;;11.00;90.40;;;;;;5009477;28;20446;-69
2022/04/21 02:07:42;;;;;;;12.40;11.20;;;11.10;90.20;;;;;;5012282;28;20460;-69
2022/04/21 02:10:08;;;;;;;11.53;10.53;;;11.00;90.50;;;;;;5011475;28;20189;-69
2022/04/21 02:12:33;;;;;;;11.97;10.77;;;11.10;90.30;;;;;;5012154;28;20412;-69
2022/04/21 02:15:01;;;;;;;12.63;11.50;;;11.00;90.20;;;;;;5010228;28;20427;-69
2022/04/21 02:17:26;;;;;;;11.13;10.23;;;11.20;90.70;;;;;;5010423;28;20186;-69
2022/04/21 02:19:52;;;;;;;12.40;10.67;;;10.70;90.40;;;;;;5011246;28;20836;-69
2022/04/21 02:22:18;;;;;;;11.50;10.60;;;11.10;90.50;;;;;;5011316;28;20978;-69
2022/04/21 02:24:43;;;;;;;10.97;9.97;;;11.10;90.20;;;;;;5011128;28;20638;-76
2022/04/21 02:27:09;;;;;;;11.20;10.20;;;11.20;90.20;;;;;;5009897;28;20247;-69
2022/04/21 02:29:35;;;;;;;11.20;10.20;;;11.10;90.20;;;;;;5011579;28;20201;-69
2022/04/21 02:32:01;;;;;;;11.50;10.50;;;11.20;90.10;;;;;;5011134;28;21143;-69
2022/04/21 02:34:29;;;;;;;10.93;10.03;;;11.10;90.00;;;;;;5011879;28;20429;-69
2022/04/21 02:36:55;;;;;;;11.50;10.50;;;11.20;90.20;;;;;;5011098;28;20755;-68
2022/04/21 02:39:21;;;;;;;11.90;10.70;;;11.20;90.20;;;;;;5010484;28;20931;-68
2022/04/21 02:41:46;;;;;;;12.37;11.17;;;11.20;90.30;;;;;;5011045;28;20441;-69
2022/04/21 02:44:12;;;;;;;11.43;10.47;;;11.20;90.20;;;;;;5010446;28;20198;-69
2022/04/21 02:46:38;;;;;;;12.30;11.13;;;11.10;90.10;;;;;;5009819;28;20191;-68
2022/04/21 02:49:04;;;;;;;11.87;10.20;;;11.00;90.10;;;;;;5010436;28;20815;-70
2022/04/21 02:51:30;;;;;;;11.63;10.60;;;11.10;90.20;;;;;;5002588;28;20963;-68
2022/04/21 02:59:27;;;;;;;11.67;10.57;;;11.10;90.50;;;;;;5012478;28;20447;-69
2022/04/21 03:01:52;;;;;;;12.40;11.20;;;11.10;90.40;;;;;;5014481;28;20432;-69
2022/04/21 03:04:18;;;;;;;11.33;10.30;;;11.10;90.50;;;;;;5015224;28;20405;-69
2022/04/21 03:06:44;;;;;;;12.00;11.00;;;11.10;90.70;;;;;;5015481;28;20455;-76
2022/04/21 03:09:09;;;;;;;11.77;10.60;;;11.00;90.80;;;;;;5014352;28;20210;-69
2022/04/21 03:11:35;;;;;;;10.30;9.50;;;11.00;91.10;;;;;;5013994;28;20547;-69
2022/04/21 03:14:01;;;;;;;10.67;9.87;;;11.00;90.90;;;;;;5012982;28;20183;-68
2022/04/21 03:16:27;;;;;;;11.80;10.60;;;11.00;91.00;;;;;;5013795;28;20468;-76
2022/04/21 03:18:52;;;;;;;11.67;10.50;;;10.90;91.10;;;;;;5011619;28;20262;-69
2022/04/21 03:24:20;;;;;;;11.60;10.50;;;10.80;91.10;;;;;;5012013;28;20168;-69
2022/04/21 03:26:47;;;;;;;13.10;11.77;;;10.80;91.40;;;;;;5013126;28;20425;-76
2022/04/21 03:29:13;;;;;;;13.23;11.93;;;10.70;91.50;;;;;;5009078;28;20506;-69
2022/04/21 03:31:38;;;;;;;13.13;11.93;;;10.70;91.80;;;;;;5003386;28;20427;-69
2022/04/21 03:34:05;;;;;;;13.43;12.33;;;10.70;91.60;;;;;;5010071;28;20462;-69
2022/04/21 03:36:32;;;;;;;12.90;11.83;;;10.80;91.70;;;;;;5014431;28;20178;-69
2022/04/21 03:38:58;;;;;;;13.67;11.83;;;10.50;92.00;;;;;;5013374;28;20791;-69
2022/04/21 03:41:24;;;;;;;12.77;11.60;;;10.50;92.10;;;;;;5013855;28;20438;-72
2022/04/21 03:43:50;;;;;;;14.17;12.97;;;10.70;92.40;;;;;;5010484;28;20193;-70
2022/04/21 03:46:15;;;;;;;13.63;12.43;;;10.40;92.10;;;;;;5013605;28;20482;-69
2022/04/21 03:48:41;;;;;;;12.30;11.20;;;10.40;92.00;;;;;;5013629;28;20234;-69
2022/04/21 03:51:08;;;;;;;12.63;11.57;;;10.40;92.20;;;;;;5012576;28;20432;-69
2022/04/21 03:53:33;;;;;;;13.73;12.63;;;10.30;92.30;;;;;;5013363;28;20189;-69
2022/04/21 03:55:59;;;;;;;12.23;11.20;;;10.20;92.70;;;;;;5013437;28;20962;-69
2022/04/21 03:58:25;;;;;;;12.53;11.43;;;10.20;92.70;;;;;;5013030;28;20196;-69
2022/04/21 04:00:50;;;;;;;13.87;12.43;;;10.10;92.70;;;;;;5011627;28;20187;-75
2022/04/21 04:03:16;;;;;;;12.43;11.33;;;10.10;92.90;;;;;;5010755;28;20193;-69
2022/04/21 04:05:42;;;;;;;13.43;12.23;;;10.00;92.80;;;;;;5011585;28;20231;-68
2022/04/21 04:10:52;;;;;;;16.00;12.53;;;10.00;93.80;;;;;;5008694;28;20196;-70
2022/04/21 04:13:24;;;;;;;13.30;11.90;;;10.00;93.40;;;;;;5012073;28;20941;-69
2022/04/21 04:15:51;;;;;;;14.13;12.50;;;9.90;94.00;;;;;;5009828;28;20525;-75
2022/04/21 04:18:19;;;;;;;18.33;14.73;;;9.90;94.40;;;;;;5007368;28;20830;-69
2022/04/21 04:20:46;;;;;;;14.40;12.83;;;9.80;94.50;;;;;;5010799;28;20779;-69
2022/04/21 04:23:18;;;;;;;13.80;12.53;;;9.80;94.90;;;;;;5007959;28;20438;-69
2022/04/21 04:25:44;;;;;;;14.40;12.90;;;9.90;95.10;;;;;;5006588;28;20444;-69
2022/04/21 04:28:10;;;;;;;13.80;12.60;;;9.90;94.90;;;;;;5009068;28;20473;-69
2022/04/21 04:30:39;;;;;;;13.97;12.63;;;9.80;94.80;;;;;;5008144;28;20438;-70
2022/04/21 04:33:06;;;;;;;14.87;13.37;;;9.80;94.80;;;;;;5009944;28;20435;-69
2022/04/21 04:35:32;;;;;;;13.07;11.77;;;9.80;94.60;;;;;;5010875;28;20497;-69
2022/04/21 04:38:01;;;;;;;14.43;13.03;;;9.80;94.90;;;;;;5008810;28;20945;-69
2022/04/21 04:40:27;;;;;;;14.10;12.80;;;9.80;94.80;;;;;;4994463;28;20175;-74
2022/04/21 04:42:54;;;;;;;13.40;12.20;;;9.70;95.00;;;;;;5012288;28;20442;-70
2022/04/21 04:48:21;;;;;;;15.47;13.83;;;9.70;95.40;;;;;;4935821;29;20587;-69
2022/04/21 04:50:47;;;;;;;14.33;13.03;;;9.70;95.10;;;;;;4990130;28;20530;-70
2022/04/21 04:53:13;;;;;;;15.40;14.00;;;9.70;95.40;;;;;;5006880;28;20187;-70
2022/04/21 04:55:39;;;;;;;14.00;12.70;;;9.70;95.70;;;;;;5009151;28;20183;-70
2022/04/21 04:58:04;;;;;;;14.00;12.67;;;9.70;95.70;;;;;;5011461;28;20430;-69
2022/04/21 05:00:30;;;;;;;16.20;14.60;;;9.70;95.70;;;;;;5011816;28;20250;-74
2022/04/21 05:02:56;;;;;;;15.00;13.20;;;9.70;95.70;;;;;;5009649;28;20183;-71
2022/04/21 05:05:22;;;;;;;15.20;13.90;;;9.70;95.50;;;;;;5011906;28;20187;-74
2022/04/21 05:07:47;;;;;;;12.20;11.10;;;9.70;95.70;;;;;;5008749;28;20203;-72
2022/04/21 05:10:17;;;;;;;13.60;12.50;;;9.70;96.50;;;;;;5012057;28;20188;-77
2022/04/21 05:12:43;;;;;;;13.33;12.03;;;10.50;99.90;;;;;;5024518;28;20615;-72
2022/04/21 05:15:08;;;;;;;12.77;11.57;;;10.60;99.90;;;;;;5009535;28;20438;-73
2022/04/21 05:17:34;;;;;;;13.20;12.03;;;11.20;99.90;;;;;;5011715;28;20202;-73
2022/04/21 05:20:00;;;;;;;12.13;11.03;;;11.70;99.90;;;;;;5007031;28;20197;-73
2022/04/21 05:22:28;;;;;;;12.63;11.37;;;12.10;99.90;;;;;;5009457;28;20438;-72
2022/04/21 05:24:57;;;;;;;12.23;10.93;;;12.30;99.90;;;;;;5010743;28;20469;-78
2022/04/21 05:27:23;;;;;;;11.67;10.50;;;12.70;99.70;;;;;;5010897;28;20469;-72
2022/04/21 05:32:40;;;;;;;11.17;9.97;;;13.20;98.30;;;;;;5009595;28;20432;-72
2022/04/21 05:35:06;;;;;;;13.33;10.70;;;13.50;96.70;;;;;;5010643;28;20435;-72
2022/04/21 05:37:35;;;;;;;13.93;11.77;;;13.60;95.40;;;;;;5010507;28;20472;-72
2022/04/21 05:40:03;;;;;;;11.77;9.87;;;13.80;95.40;;;;;;5011607;28;20427;-72
2022/04/21 05:42:34;;;;;;;13.23;11.77;;;13.90;94.60;;;;;;5009284;28;20946;-71
2022/04/21 05:45:00;;;;;;;11.73;10.67;;;14.10;93.20;;;;;;5010485;28;20438;-72
2022/04/21 05:47:26;;;;;;;15.10;10.87;;;14.20;92.80;;;;;;5009958;28;20469;-72
2022/04/21 05:49:52;;;;;;;11.33;10.33;;;14.40;94.10;;;;;;5010007;28;20337;-74
2022/04/21 05:52:23;;;;;;;13.33;11.30;;;14.50;93.40;;;;;;5007939;28;20464;-72
2022/04/21 05:54:49;;;;;;;11.93;10.73;;;14.60;92.00;;;;;;5007345;28;20941;-71
2022/04/21 05:57:14;;;;;;;12.87;11.73;;;14.70;91.70;;;;;;5008808;28;20523;-72
2022/04/21 05:59:40;;;;;;;12.07;10.87;;;14.80;90.50;;;;;;5009614;28;20465;-76
2022/04/21 06:02:07;;;;;;;13.70;12.50;;;14.80;88.50;;;;;;5009090;28;20192;-75
2022/04/21 06:04:32;;;;;;;13.57;12.30;;;14.70;83.40;;;;;;5010240;28;20680;-68
2022/04/21 06:06:58;;;;;;;13.20;12.20;;;14.30;82.00;;;;;;5005328;28;20437;-71
2022/04/21 06:09:24;;;;;;;13.40;12.20;;;14.00;82.40;;;;;;5005314;28;20182;-68
2022/04/21 06:11:50;;;;;;;13.70;11.90;;;13.80;82.50;;;;;;5008384;28;20446;-68
2022/04/21 06:14:16;;;;;;;14.80;12.30;;;13.50;83.00;;;;;;5009026;28;20255;-68
2022/04/21 06:16:41;;;;;;;14.20;13.00;;;13.20;84.60;;;;;;5011767;28;20310;-69
2022/04/21 06:19:07;;;;;;;13.73;12.43;;;13.00;85.60;;;;;;5008738;28;20197;-69
2022/04/21 06:21:33;;;;;;;12.43;11.40;;;12.70;86.50;;;;;;5010663;28;20192;-68
2022/04/21 06:23:58;;;;;;;12.17;11.00;;;12.20;87.40;;;;;;5011236;28;20198;-69
2022/04/21 06:26:27;;;;;;;11.40;10.50;;;11.80;90.00;;;;;;5010398;28;20205;-68
2022/04/21 06:28:57;;;;;;;11.50;10.50;;;11.80;90.60;;;;;;5009045;28;20634;-68
2022/04/21 06:31:22;;;;;;;11.00;9.90;;;11.80;90.90;;;;;;5011132;28;20468;-68
2022/04/21 06:33:48;;;;;;;11.13;10.23;;;11.60;90.40;;;;;;5010762;28;20833;-68
2022/04/21 06:36:14;;;;;;;10.87;10.00;;;11.60;91.00;;;;;;5012202;28;20719;-72
2022/04/21 06:38:40;;;;;;;12.20;11.03;;;11.60;90.80;;;;;;5020893;28;20198;-70
2022/04/21 06:41:06;;;;;;;11.17;10.03;;;11.60;90.60;;;;;;5013719;28;20181;-68
2022/04/21 06:49:01;;;;;;;10.53;9.53;;;11.70;90.80;;;;;;5009212;28;20511;-68
2022/04/21 06:51:27;;;;;;;9.10;8.20;;;11.60;91.20;;;;;;5014087;28;20450;-69
2022/04/21 06:53:54;;;;;;;9.80;8.90;;;11.60;91.70;;;;;;5012015;28;20503;-68
2022/04/21 06:56:19;;;;;;;11.00;10.17;;;11.60;92.20;;;;;;5013814;28;20433;-69
2022/04/21 06:58:46;;;;;;;10.07;9.07;;;11.60;92.70;;;;;;5011609;28;20977;-69
2022/04/21 07:01:12;;;;;;;9.37;8.10;;;11.70;92.50;;;;;;5011648;28;20192;-69
2022/04/21 07:03:38;;;;;;;10.20;9.37;;;11.70;92.80;;;;;;5008654;28;20440;-68
2022/04/21 07:06:04;;;;;;;8.70;7.80;;;11.80;92.50;;;;;;5011005;28;20595;-68
2022/04/21 07:08:30;;;;;;;8.93;8.13;;;11.80;92.50;;;;;;5005476;28;20472;-68
2022/04/21 07:10:56;;;;;;;8.20;7.50;;;11.90;94.60;;;;;;5007710;28;20774;-72
2022/04/21 07:13:22;;;;;;;8.90;8.00;;;12.00;92.90;;;;;;5012201;28;20444;-68
2022/04/21 07:15:48;;;;;;;8.53;7.70;;;12.10;92.70;;;;;;5011160;28;20209;-69
2022/04/21 07:18:13;;;;;;;7.83;7.23;;;12.20;93.70;;;;;;5010538;28;20854;-69
2022/04/21 07:20:39;;;;;;;8.57;7.90;;;12.20;92.90;;;;;;5010947;28;20209;-69
2022/04/21 07:23:06;;;;;;;9.60;8.67;;;12.30;93.20;;;;;;5012835;28;20939;-69
2022/04/21 07:25:32;;;;;;;8.23;7.63;;;12.30;92.40;;;;;;5011424;28;20179;-69
2022/04/21 07:27:57;;;;;;;9.63;8.80;;;12.40;91.50;;;;;;5012676;28;20811;-73
2022/04/21 07:30:24;;;;;;;8.90;8.00;;;12.60;92.30;;;;;;5010929;28;20471;-69
2022/04/21 07:32:49;;;;;;;8.00;7.20;;;12.70;92.50;;;;;;5012149;28;20187;-69
2022/04/21 07:35:15;;;;;;;9.40;8.70;;;12.70;91.00;;;;;;5013777;28;20417;-69
2022/04/21 07:37:42;;;;;;;7.20;6.50;;;12.70;90.10;;;;;;5010552;28;20196;-71
2022/04/21 07:40:08;;;;;;;9.03;8.20;;;12.80;90.60;;;;;;5007696;28;20189;-74
2022/04/21 07:42:33;;;;;;;9.90;9.00;;;12.90;90.30;;;;;;5010098;28;20456;-70
2022/04/21 07:45:03;;;;;;;8.47;7.67;;;13.00;90.70;;;;;;4994748;28;20272;-73
2022/04/21 07:47:28;;;;;;;8.20;7.53;;;13.10;90.50;;;;;;5005910;28;20220;-70
2022/04/21 07:49:56;;;;;;;7.47;6.87;;;13.20;90.80;;;;;;5012031;28;20965;-70
2022/04/21 07:55:14;;;;;;;7.60;7.00;;;13.50;90.00;;;;;;5010207;28;20424;-70
2022/04/21 07:57:40;;;;;;;8.20;7.50;;;13.40;86.50;;;;;;5005819;28;20927;-70
2022/04/21 08:00:07;;;;;;;7.20;6.60;;;13.30;86.50;;;;;;5006235;28;20584;-70
2022/04/21 08:02:33;;;;;;;7.70;7.00;;;13.10;85.80;;;;;;5006762;28;20432;-69
2022/04/21 08:04:59;;;;;;;6.57;6.03;;;13.30;89.80;;;;;;5009404;28;20934;-73
2022/04/21 08:07:25;;;;;;;6.37;5.77;;;13.50;90.30;;;;;;5011644;28;20472;-70
2022/04/21 08:09:51;;;;;;;9.77;8.17;;;13.60;88.00;;;;;;5012472;28;20437;-68
2022/04/21 08:12:17;;;;;;;5.77;5.17;;;13.80;89.40;;;;;;5012420;28;20433;-69
2022/04/21 08:14:43;;;;;;;6.60;6.00;;;13.90;85.60;;;;;;5011333;28;20224;-69
2022/04/21 08:17:09;;;;;;;6.10;5.70;;;14.00;83.30;;;;;;5006253;28;20256;-71
2022/04/21 08:19:34;;;;;;;6.03;5.63;;;14.10;82.90;;;;;;5011395;28;20460;-70
2022/04/21 08:22:00;;;;;;;7.50;6.47;;;14.20;82.00;;;;;;5009996;28;20175;-72
2022/04/21 08:32:46;;;;;;;7.00;6.33;;;14.60;82.90;;;;;;5009823;28;20762;-72
2022/04/21 08:35:15;;;;;;;8.30;7.67;;;14.70;80.30;;;;;;5008741;28;20541;-71
2022/04/21 08:37:42;;;;;;;5.90;5.30;;;14.60;78.30;;;;;;5012051;28;20438;-71
2022/04/21 08:40:11;;;;;;;7.67;7.17;;;14.70;81.30;;;;;;5010959;28;20434;-71
2022/04/21 08:42:41;;;;;;;5.20;4.90;;;14.80;83.40;;;;;;5011767;28;20448;-71
2022/04/21 08:45:08;;;;;;;7.03;6.53;;;14.80;81.00;;;;;;5011150;28;20441;-72
2022/04/21 08:47:36;;;;;;;8.63;7.50;;;14.80;79.10;;;;;;5008719;28;20474;-71
2022/04/21 08:50:07;;;;;;;6.50;5.90;;;14.90;79.90;;;;;;5010502;28;20485;-72
2022/04/21 08:52:34;;;;;;;7.70;7.10;;;15.00;79.80;;;;;;5001274;28;20442;-68
2022/04/21 08:55:01;;;;;;;8.23;7.43;;;15.00;77.90;;;;;;5012692;28;20421;-69
2022/04/21 08:57:29;;;;;;;7.57;6.87;;;15.10;80.90;;;;;;5008429;28;20480;-68
2022/04/21 08:59:56;;;;;;;9.03;8.13;;;15.20;80.40;;;;;;5011219;28;20443;-68
2022/04/21 09:02:32;;;;;;;7.00;6.40;;;15.20;78.70;;;;;;5004636;28;20434;-68
2022/04/21 09:04:58;;;;;;;6.70;6.10;;;15.10;78.20;;;;;;5010373;28;20439;-68
2022/04/21 09:07:24;;;;;;;6.53;6.03;;;15.00;77.20;;;;;;5009083;28;20505;-70
2022/04/21 09:10:13;;;;;;;6.50;6.00;;;14.90;76.50;;;;;;5007402;28;20186;-71
2022/04/21 09:12:47;;;;;;;6.40;5.90;;;14.80;76.60;;;;;;5008041;28;20171;-70
2022/04/21 09:15:15;;;;;;;7.70;7.20;;;14.80;79.70;;;;;;5006890;28;20470;-71
2022/04/21 09:17:41;;;;;;;6.17;5.77;;;14.80;76.60;;;;;;5009987;28;20442;-71
2022/04/21 09:20:07;;;;;;;7.10;6.60;;;14.70;76.30;;;;;;5010471;28;20438;-71
2022/04/21 09:22:33;;;;;;;5.77;5.30;;;14.70;76.40;;;;;;5010496;28;20193;-71
2022/04/21 09:25:00;;;;;;;11.20;8.30;;;14.60;78.00;;;;;;5010361;28;20426;-71
2022/04/21 09:27:45;;;;;;;8.67;7.13;;;14.50;80.90;;;;;;5009059;28;20465;-71
2022/04/21 09:30:15;;;;;;;37.30;16.07;;;14.50;82.30;;;;;;5010415;28;20468;-71
2022/04/21 09:32:50;;;;;;;21.53;9.30;;;14.50;81.40;;;;;;5008861;28;20827;-71
2022/04/21 09:35:17;;;;;;;5.63;5.23;;;14.50;83.10;;;;;;5009121;28;20842;-71
2022/04/21 09:37:53;;;;;;;9.20;6.10;;;14.60;81.30;;;;;;5010828;28;20407;-71
2022/04/21 09:40:21;;;;;;;9.83;8.93;;;14.60;79.80;;;;;;5006322;28;20423;-71
2022/04/21 09:42:57;;;;;;;7.93;6.00;;;14.60;82.40;;;;;;5008546;28;20524;-71
2022/04/21 09:48:28;;;;;;;5.10;4.70;;;14.50;80.20;;;;;;5007803;28;21075;-71
2022/04/21 09:51:06;;;;;;;7.20;6.80;;;14.40;77.40;;;;;;5021541;28;20445;-70
2022/04/21 09:53:47;;;;;;;6.87;5.97;;;14.50;76.80;;;;;;5008763;28;21106;-70
2022/04/21 09:56:13;;;;;;;7.00;6.13;;;14.30;78.80;;;;;;5007754;28;20597;-71
2022/04/21 09:58:39;;;;;;;6.47;5.87;;;14.30;80.10;;;;;;5009171;28;20793;-71
2022/04/21 10:01:06;;;;;;;6.97;5.50;;;14.40;81.90;;;;;;5008422;28;20190;-71
2022/04/21 10:03:33;;;;;;;6.57;6.07;;;14.40;78.70;;;;;;5008669;28;20759;-71
2022/04/21 10:06:00;;;;;;;7.87;6.50;;;14.40;79.60;;;;;;5009700;28;20465;-70
2022/04/21 10:08:26;;;;;;;7.83;7.20;;;14.30;78.20;;;;;;5007626;28;20497;-70
2022/04/21 10:10:53;;;;;;;7.23;6.63;;;14.30;81.10;;;;;;5012117;28;20479;-71
2022/04/21 10:13:19;;;;;;;6.90;6.40;;;14.30;79.70;;;;;;5010905;28;20449;-71
2022/04/21 10:15:45;;;;;;;7.87;7.37;;;14.40;82.00;;;;;;5010737;28;20425;-71
2022/04/21 10:18:16;;;;;;;6.40;5.80;;;14.50;82.50;;;;;;5011079;28;20449;-70
2022/04/21 10:20:45;;;;;;;8.10;7.50;;;14.60;81.40;;;;;;5011017;28;20440;-71
2022/04/21 10:23:18;;;;;;;7.47;6.77;;;14.60;80.40;;;;;;5009892;28;20831;-67
2022/04/21 10:25:44;;;;;;;7.20;6.70;;;14.70;79.10;;;;;;5013695;28;20466;-68
2022/04/21 10:28:37;;;;;;;9.17;8.40;;;14.60;79.00;;;;;;5014942;28;20466;-68
2022/04/21 10:31:29;;;;;;;7.93;7.30;;;14.70;82.70;;;;;;5008630;28;20457;-70
2022/04/21 10:34:06;;;;;;;8.87;8.27;;;14.70;85.50;;;;;;5013593;28;20475;-70
2022/04/21 10:36:33;;;;;;;8.07;7.50;;;14.70;80.30;;;;;;5010898;28;20445;-71
2022/04/21 10:39:18;;;;;;;7.10;6.50;;;14.60;80.90;;;;;;5014251;28;20473;-71
2022/04/21 10:41:45;;;;;;;7.97;7.13;;;14.50;79.50;;;;;;5012522;28;20462;-69
2022/04/21 10:44:15;;;;;;;9.23;8.30;;;14.60;82.70;;;;;;5010822;28;20488;-70
2022/04/21 10:46:41;;;;;;;9.37;8.47;;;14.60;80.80;;;;;;5010469;28;20438;-67
2022/04/21 10:49:09;;;;;;;7.73;7.20;;;14.60;82.60;;;;;;5009296;28;20491;-71
2022/04/21 10:57:33;;;;;;;7.60;7.00;;;14.60;81.50;;;;;;4993427;28;20448;-70
2022/04/21 11:00:03;;;;;;;9.77;7.20;;;14.00;81.70;;;;;;5012342;28;20457;-70
2022/04/21 11:02:43;;;;;;;8.40;7.60;;;14.00;83.30;;;;;;5013264;28;20946;-71
2022/04/21 11:05:21;;;;;;;7.83;7.07;;;13.90;84.40;;;;;;5013260;28;20453;-72
2022/04/21 11:07:52;;;;;;;7.03;6.50;;;14.10;85.60;;;;;;5005059;28;21665;-70
2022/04/21 11:10:28;;;;;;;7.67;7.07;;;14.30;85.40;;;;;;5010889;28;20456;-70
2022/04/21 11:12:54;;;;;;;7.40;6.73;;;14.60;84.70;;;;;;5013345;28;20789;-70
2022/04/21 11:15:37;;;;;;;8.23;7.03;;;14.70;83.10;;;;;;5006296;28;20430;-70
2022/04/21 11:18:28;;;;;;;6.93;6.37;;;14.80;84.60;;;;;;5014688;28;20476;-75
2022/04/21 11:21:25;;;;;;;7.70;7.10;;;15.00;87.10;;;;;;5011860;28;20444;-72
2022/04/21 11:23:51;;;;;;;7.83;7.33;;;15.40;87.60;;;;;;5014583;28;20433;-70
2022/04/21 11:26:17;;;;;;;8.00;7.47;;;15.80;82.40;;;;;;5013012;28;20929;-69
2022/04/21 11:28:45;;;;;;;7.30;6.60;;;15.90;82.70;;;;;;5014398;28;20210;-69
2022/04/21 11:31:12;;;;;;;7.90;7.30;;;16.20;82.00;;;;;;5012833;28;20829;-69
2022/04/21 11:33:44;;;;;;;7.23;6.63;;;16.40;79.00;;;;;;5011956;28;20971;-67
2022/04/21 11:36:12;;;;;;;7.53;6.93;;;16.60;79.20;;;;;;5011074;28;20448;-68
2022/04/21 11:38:47;;;;;;;10.13;7.90;;;16.60;79.50;;;;;;5013790;28;20441;-67
2022/04/21 11:41:14;;;;;;;7.20;6.70;;;16.70;78.10;;;;;;5004916;28;20429;-67
2022/04/21 11:43:50;;;;;;;7.90;7.30;;;16.70;78.40;;;;;;5012791;28;20449;-67
2022/04/21 11:46:19;;;;;;;8.47;7.80;;;16.70;77.90;;;;;;5005923;28;20758;-68
2022/04/21 11:48:45;;;;;;;7.60;7.10;;;16.70;77.50;;;;;;5012090;28;20581;-67
2022/04/21 11:51:24;;;;;;;8.80;8.00;;;16.70;77.40;;;;;;5012262;28;20461;-68
2022/04/21 11:53:50;;;;;;;7.37;6.77;;;16.70;77.50;;;;;;5013126;28;20500;-68
2022/04/21 11:56:17;;;;;;;8.33;7.47;;;16.60;77.30;;;;;;5013372;28;20433;-67
2022/04/21 11:58:43;;;;;;;7.13;6.53;;;16.60;77.30;;;;;;5027881;28;20438;-67
2022/04/21 12:06:46;;;;;;;8.07;7.27;;;16.60;79.60;;;;;;5010672;28;20568;-67
2022/04/21 12:09:17;;;;;;;7.73;7.13;;;16.70;77.70;;;;;;5008979;28;20461;-68
2022/04/21 12:11:49;;;;;;;7.90;7.20;;;16.80;79.10;;;;;;5006040;28;20445;-68
2022/04/21 12:14:16;;;;;;;8.67;8.00;;;16.90;79.50;;;;;;5004338;28;20759;-69
2022/04/21 12:16:45;;;;;;;7.87;7.20;;;17.10;78.90;;;;;;5004171;28;20445;-67
2022/04/21 12:19:32;;;;;;;8.37;7.70;;;17.10;77.70;;;;;;5011096;28;20453;-68
2022/04/21 12:22:08;;;;;;;9.00;8.30;;;17.20;76.00;;;;;;5010748;28;20865;-69
2022/04/21 12:24:38;;;;;;;8.50;7.70;;;17.40;77.00;;;;;;5005188;28;20444;-69
2022/04/21 12:27:10;;;;;;;8.67;8.03;;;17.50;76.20;;;;;;5010152;28;20442;-71
2022/04/21 12:29:46;;;;;;;8.27;7.47;;;17.70;76.00;;;;;;5010328;28;20461;-68
2022/04/21 12:32:11;;;;;;;8.27;7.57;;;17.80;73.90;;;;;;5008603;28;20445;-70
2022/04/21 12:34:40;;;;;;;9.37;8.57;;;17.60;72.50;;;;;;5008848;28;21265;-69
2022/04/21 12:37:07;;;;;;;9.70;8.20;;;17.60;74.20;;;;;;5010893;28;20529;-69
2022/04/21 12:39:33;;;;;;;9.20;8.30;;;17.50;73.40;;;;;;5007224;28;20518;-70
2022/04/21 12:42:01;;;;;;;8.50;7.90;;;17.40;74.40;;;;;;5002459;28;20430;-69
2022/04/21 12:44:27;;;;;;;9.13;7.97;;;17.40;73.60;;;;;;5009497;28;20441;-68
2022/04/21 12:46:58;;;;;;;9.10;8.40;;;17.30;73.60;;;;;;5006297;28;22410;-68
2022/04/21 12:49:44;;;;;;;9.03;8.23;;;17.30;75.20;;;;;;5003928;28;20509;-68
2022/04/21 12:52:10;;;;;;;8.27;7.57;;;17.30;76.00;;;;;;5010648;28;20828;-72
2022/04/21 12:54:36;;;;;;;8.50;7.90;;;17.10;75.50;;;;;;5011131;28;20441;-67
2022/04/21 12:57:02;;;;;;;8.60;7.80;;;17.10;75.80;;;;;;5009037;28;20692;-68
2022/04/21 12:59:27;;;;;;;9.10;8.30;;;17.10;76.30;;;;;;5010599;28;20481;-69
2022/04/21 13:01:53;;;;;;;8.60;7.90;;;17.10;77.70;;;;;;5010237;28;20519;-68
2022/04/21 13:04:19;;;;;;;8.73;7.83;;;17.20;78.60;;;;;;5004449;28;20270;-72
2022/04/21 13:06:44;;;;;;;8.00;7.33;;;17.30;76.40;;;;;;5009552;28;20190;-67
2022/04/21 13:09:10;;;;;;;8.43;7.63;;;17.40;77.00;;;;;;5010286;28;20567;-71
2022/04/21 13:11:36;;;;;;;8.87;8.07;;;17.50;79.80;;;;;;5012085;28;20187;-68
2022/04/21 13:14:01;;;;;;;8.60;7.87;;;17.70;79.60;;;;;;5010131;28;20179;-67
2022/04/21 13:16:27;;;;;;;8.97;8.17;;;17.80;79.60;;;;;;5005890;28;20190;-68
2022/04/21 13:18:55;;;;;;;8.93;8.23;;;18.00;77.70;;;;;;5011903;28;20190;-68
2022/04/21 13:24:07;;;;;;;9.03;8.23;;;18.10;74.80;;;;;;5009057;28;20598;-70
2022/04/21 13:26:33;;;;;;;9.10;8.40;;;18.10;75.00;;;;;;5006788;28;20442;-68
2022/04/21 13:28:59;;;;;;;9.40;8.80;;;18.10;75.80;;;;;;5009750;28;20522;-68
2022/04/21 13:34:10;;;;;;;9.30;8.60;;;18.20;76.40;;;;;;5004833;28;20438;-73
2022/04/21 13:36:38;;;;;;;8.90;8.00;;;18.30;77.00;;;;;;5008115;28;20433;-69
2022/04/21 13:39:04;;;;;;;8.60;7.90;;;18.50;77.70;;;;;;5008379;28;20520;-68
2022/04/21 13:41:30;;;;;;;10.00;9.20;;;18.50;75.30;;;;;;5011475;28;20418;-67